sensor_id;sensor_type;location;lat;lon;timestamp;P1;durP1;ratioP1;P2;durP2;ratioP2
38318;SDS011;24121;53.536;10.224;2022-12-20T08:50:53;32.25;;;17.17;;
38318;SDS011;24121;53.536;10.224;2022-12-20T08:53:19;29.88;;;18.70;;
38318;SDS011;24121;53.536;10.224;2022-12-20T08:55:45;32.55;;;19.95;;
38318;SDS011;24121;53.536;10.224;2022-12-20T08:58:10;45.28;;;22.40;;
38318;SDS011;24121;53.536;10.224;2022-12-20T09:00:35;27.67;;;18.23;;
38318;SDS011;24121;53.536;10.224;2022-12-20T09:03:01;29.50;;;18.25;;
38318;SDS011;24121;53.536;10.224;2022-12-20T09:05:27;28.77;;;17.23;;
38318;SDS011;24121;53.536;10.224;2022-12-20T09:07:52;33.70;;;19.33;;
38318;SDS011;24121;53.536;10.224;2022-12-20T09:10:17;23.98;;;17.80;;
38318;SDS011;24121;53.536;10.224;2022-12-20T09:12:43;25.08;;;17.25;;
38318;SDS011;24121;53.536;10.224;2022-12-20T09:15:09;27.30;;;17.05;;
38318;SDS011;24121;53.536;10.224;2022-12-20T09:19:59;22.45;;;16.35;;
38318;SDS011;24121;53.536;10.224;2022-12-20T09:22:27;34.00;;;19.15;;
38318;SDS011;24121;53.536;10.224;2022-12-20T09:24:52;30.13;;;19.23;;
38318;SDS011;24121;53.536;10.224;2022-12-20T09:27:18;23.45;;;16.55;;
38318;SDS011;24121;53.536;10.224;2022-12-20T09:29:43;23.48;;;16.25;;
38318;SDS011;24121;53.536;10.224;2022-12-20T09:32:08;24.27;;;15.55;;
38318;SDS011;24121;53.536;10.224;2022-12-20T09:34:34;22.88;;;16.73;;
38318;SDS011;24121;53.536;10.224;2022-12-20T09:36:59;24.65;;;15.88;;
38318;SDS011;24121;53.536;10.224;2022-12-20T09:39:25;30.45;;;17.42;;
38318;SDS011;24121;53.536;10.224;2022-12-20T09:41:50;26.27;;;17.92;;
38318;SDS011;24121;53.536;10.224;2022-12-20T09:46:58;23.48;;;16.50;;
38318;SDS011;24121;53.536;10.224;2022-12-20T09:49:27;25.33;;;16.25;;
38318;SDS011;24121;53.536;10.224;2022-12-20T09:55:08;21.17;;;15.52;;
38318;SDS011;24121;53.536;10.224;2022-12-20T10:00:35;22.67;;;15.45;;
38318;SDS011;24121;53.536;10.224;2022-12-20T10:03:05;27.23;;;17.30;;
38318;SDS011;24121;53.536;10.224;2022-12-20T10:26:40;18.17;;;13.07;;
38318;SDS011;24121;53.536;10.224;2022-12-20T10:29:06;19.13;;;12.98;;
38318;SDS011;24121;53.536;10.224;2022-12-20T10:31:33;21.55;;;14.52;;
38318;SDS011;24121;53.536;10.224;2022-12-20T10:33:58;23.20;;;16.05;;
38318;SDS011;24121;53.536;10.224;2022-12-20T10:36:25;18.98;;;13.77;;
38318;SDS011;24121;53.536;10.224;2022-12-20T10:38:52;22.42;;;14.57;;
38318;SDS011;24121;53.536;10.224;2022-12-20T10:44:00;16.52;;;13.57;;
38318;SDS011;24121;53.536;10.224;2022-12-20T10:46:34;23.48;;;15.77;;
38318;SDS011;24121;53.536;10.224;2022-12-20T10:49:19;17.63;;;13.10;;
38318;SDS011;24121;53.536;10.224;2022-12-20T10:51:55;20.83;;;15.03;;
38318;SDS011;24121;53.536;10.224;2022-12-20T10:54:23;20.63;;;13.55;;
38318;SDS011;24121;53.536;10.224;2022-12-20T10:56:54;20.30;;;13.82;;
38318;SDS011;24121;53.536;10.224;2022-12-20T10:59:32;19.08;;;13.75;;
38318;SDS011;24121;53.536;10.224;2022-12-20T11:01:59;17.65;;;12.77;;
38318;SDS011;24121;53.536;10.224;2022-12-20T11:06:54;21.30;;;14.88;;
38318;SDS011;24121;53.536;10.224;2022-12-20T11:09:27;17.40;;;13.20;;
38318;SDS011;24121;53.536;10.224;2022-12-20T11:11:57;18.55;;;12.50;;
38318;SDS011;24121;53.536;10.224;2022-12-20T11:16:49;20.08;;;13.25;;
38318;SDS011;24121;53.536;10.224;2022-12-20T11:19:29;18.38;;;12.38;;
38318;SDS011;24121;53.536;10.224;2022-12-20T11:24:48;21.90;;;14.20;;
38318;SDS011;24121;53.536;10.224;2022-12-20T11:27:31;17.38;;;12.57;;
38318;SDS011;24121;53.536;10.224;2022-12-20T11:35:34;17.88;;;12.95;;
38318;SDS011;24121;53.536;10.224;2022-12-20T11:43:17;18.67;;;12.93;;
38318;SDS011;24121;53.536;10.224;2022-12-20T11:46:03;15.43;;;11.48;;
38318;SDS011;24121;53.536;10.224;2022-12-20T11:51:38;16.23;;;12.25;;
38318;SDS011;24121;53.536;10.224;2022-12-20T11:54:13;19.67;;;12.57;;
38318;SDS011;24121;53.536;10.224;2022-12-20T11:56:53;16.20;;;11.75;;
38318;SDS011;24121;53.536;10.224;2022-12-20T11:59:45;17.63;;;12.90;;
38318;SDS011;24121;53.536;10.224;2022-12-20T12:02:22;17.80;;;12.20;;
38318;SDS011;24121;53.536;10.224;2022-12-20T12:05:15;15.00;;;10.85;;
38318;SDS011;24121;53.536;10.224;2022-12-20T12:07:45;15.55;;;11.93;;
38318;SDS011;24121;53.536;10.224;2022-12-20T12:10:16;17.15;;;11.27;;
38318;SDS011;24121;53.536;10.224;2022-12-20T12:12:44;9.00;;;6.87;;
38318;SDS011;24121;53.536;10.224;2022-12-20T12:20:37;15.60;;;11.32;;
38318;SDS011;24121;53.536;10.224;2022-12-20T12:23:18;13.13;;;9.88;;
38318;SDS011;24121;53.536;10.224;2022-12-20T12:25:54;13.55;;;9.98;;
38318;SDS011;24121;53.536;10.224;2022-12-20T12:28:19;14.02;;;10.57;;
38318;SDS011;24121;53.536;10.224;2022-12-20T12:30:48;14.85;;;10.23;;
38318;SDS011;24121;53.536;10.224;2022-12-20T12:33:19;12.63;;;9.85;;
38318;SDS011;24121;53.536;10.224;2022-12-20T12:35:55;15.20;;;10.80;;
38318;SDS011;24121;53.536;10.224;2022-12-20T12:43:58;14.00;;;10.32;;
38318;SDS011;24121;53.536;10.224;2022-12-20T12:46:46;14.10;;;10.43;;
38318;SDS011;24121;53.536;10.224;2022-12-20T12:49:17;17.80;;;12.10;;
38318;SDS011;24121;53.536;10.224;2022-12-20T12:51:49;15.45;;;11.00;;
38318;SDS011;24121;53.536;10.224;2022-12-20T12:56:49;15.27;;;11.15;;
38318;SDS011;24121;53.536;10.224;2022-12-20T12:59:21;14.30;;;10.57;;
38318;SDS011;24121;53.536;10.224;2022-12-20T13:20:22;20.13;;;12.88;;
38318;SDS011;24121;53.536;10.224;2022-12-20T13:25:31;18.73;;;13.43;;
38318;SDS011;24121;53.536;10.224;2022-12-20T13:30:44;20.63;;;14.00;;
38318;SDS011;24121;53.536;10.224;2022-12-20T13:33:18;15.52;;;11.60;;
38318;SDS011;24121;53.536;10.224;2022-12-20T13:35:53;18.80;;;13.07;;
38318;SDS011;24121;53.536;10.224;2022-12-20T13:41:25;18.23;;;12.02;;
38318;SDS011;24121;53.536;10.224;2022-12-20T13:43:56;18.88;;;13.80;;
38318;SDS011;24121;53.536;10.224;2022-12-20T13:49:10;13.35;;;10.90;;
38318;SDS011;24121;53.536;10.224;2022-12-20T13:51:37;14.88;;;11.23;;
38318;SDS011;24121;53.536;10.224;2022-12-20T13:54:06;22.05;;;13.68;;
38318;SDS011;24121;53.536;10.224;2022-12-20T13:56:34;15.30;;;10.95;;
38318;SDS011;24121;53.536;10.224;2022-12-20T13:59:17;16.65;;;11.25;;
38318;SDS011;24121;53.536;10.224;2022-12-20T14:01:47;15.77;;;10.40;;
38318;SDS011;24121;53.536;10.224;2022-12-20T14:06:39;13.15;;;9.57;;
38318;SDS011;24121;53.536;10.224;2022-12-20T14:09:17;16.15;;;11.40;;
38318;SDS011;24121;53.536;10.224;2022-12-20T14:12:05;18.52;;;12.40;;
38318;SDS011;24121;53.536;10.224;2022-12-20T14:14:52;16.98;;;12.02;;
38318;SDS011;24121;53.536;10.224;2022-12-20T14:19:46;13.55;;;9.60;;
38318;SDS011;24121;53.536;10.224;2022-12-20T14:22:11;15.50;;;9.80;;
38318;SDS011;24121;53.536;10.224;2022-12-20T14:24:38;13.93;;;9.85;;
38318;SDS011;24121;53.536;10.224;2022-12-20T14:27:05;15.05;;;10.75;;
38318;SDS011;24121;53.536;10.224;2022-12-20T14:29:33;18.73;;;11.27;;
38318;SDS011;24121;53.536;10.224;2022-12-20T14:31:59;14.23;;;9.77;;
38318;SDS011;24121;53.536;10.224;2022-12-20T14:34:28;11.60;;;8.45;;
38318;SDS011;24121;53.536;10.224;2022-12-20T14:39:38;15.77;;;9.75;;
38318;SDS011;24121;53.536;10.224;2022-12-20T14:42:19;19.00;;;10.60;;
38318;SDS011;24121;53.536;10.224;2022-12-20T14:44:45;15.90;;;9.20;;
38318;SDS011;24121;53.536;10.224;2022-12-20T14:47:14;13.60;;;8.60;;
38318;SDS011;24121;53.536;10.224;2022-12-20T14:49:53;17.38;;;12.05;;
38318;SDS011;24121;53.536;10.224;2022-12-20T14:52:29;13.05;;;9.07;;
38318;SDS011;24121;53.536;10.224;2022-12-20T14:54:59;12.27;;;8.65;;
38318;SDS011;24121;53.536;10.224;2022-12-20T14:57:28;16.35;;;9.70;;
38318;SDS011;24121;53.536;10.224;2022-12-20T15:00:09;15.73;;;10.02;;
38318;SDS011;24121;53.536;10.224;2022-12-20T15:02:45;16.20;;;9.52;;
38318;SDS011;24121;53.536;10.224;2022-12-20T15:10:38;11.00;;;8.95;;
38318;SDS011;24121;53.536;10.224;2022-12-20T15:13:09;16.40;;;9.15;;
38318;SDS011;24121;53.536;10.224;2022-12-20T15:15:36;13.65;;;9.40;;
38318;SDS011;24121;53.536;10.224;2022-12-20T15:18:04;13.98;;;9.90;;
38318;SDS011;24121;53.536;10.224;2022-12-20T15:20:33;11.95;;;9.10;;
38318;SDS011;24121;53.536;10.224;2022-12-20T15:22:58;15.63;;;9.70;;
38318;SDS011;24121;53.536;10.224;2022-12-20T15:25:24;18.25;;;9.98;;
38318;SDS011;24121;53.536;10.224;2022-12-20T15:27:50;12.68;;;9.80;;
38318;SDS011;24121;53.536;10.224;2022-12-20T15:30:16;10.85;;;8.57;;
38318;SDS011;24121;53.536;10.224;2022-12-20T15:32:42;18.95;;;9.68;;
38318;SDS011;24121;53.536;10.224;2022-12-20T15:35:14;17.02;;;8.98;;
38318;SDS011;24121;53.536;10.224;2022-12-20T15:37:39;15.85;;;9.68;;
38318;SDS011;24121;53.536;10.224;2022-12-20T15:40:05;12.50;;;9.88;;
38318;SDS011;24121;53.536;10.224;2022-12-20T15:42:31;15.73;;;9.52;;
38318;SDS011;24121;53.536;10.224;2022-12-20T15:44:57;11.50;;;8.55;;
38318;SDS011;24121;53.536;10.224;2022-12-20T15:47:22;14.50;;;9.80;;
38318;SDS011;24121;53.536;10.224;2022-12-20T15:49:47;13.23;;;9.73;;
38318;SDS011;24121;53.536;10.224;2022-12-20T15:52:19;15.32;;;9.77;;
38318;SDS011;24121;53.536;10.224;2022-12-20T15:54:46;11.98;;;8.75;;
38318;SDS011;24121;53.536;10.224;2022-12-20T15:57:12;19.30;;;11.18;;
38318;SDS011;24121;53.536;10.224;2022-12-20T15:59:38;18.35;;;11.13;;
38318;SDS011;24121;53.536;10.224;2022-12-20T16:02:08;13.73;;;10.07;;
38318;SDS011;24121;53.536;10.224;2022-12-20T16:04:41;14.02;;;10.18;;
38318;SDS011;24121;53.536;10.224;2022-12-20T16:07:07;14.23;;;10.32;;
38318;SDS011;24121;53.536;10.224;2022-12-20T16:09:34;15.10;;;10.90;;
38318;SDS011;24121;53.536;10.224;2022-12-20T16:11:59;12.70;;;9.38;;
38318;SDS011;24121;53.536;10.224;2022-12-20T16:14:24;11.30;;;9.32;;
38318;SDS011;24121;53.536;10.224;2022-12-20T16:16:51;14.48;;;9.85;;
38318;SDS011;24121;53.536;10.224;2022-12-20T16:19:16;12.77;;;9.48;;
38318;SDS011;24121;53.536;10.224;2022-12-20T16:21:44;13.13;;;9.20;;
38318;SDS011;24121;53.536;10.224;2022-12-20T16:24:12;11.90;;;8.10;;
38318;SDS011;24121;53.536;10.224;2022-12-20T16:26:39;13.77;;;9.27;;
38318;SDS011;24121;53.536;10.224;2022-12-20T16:29:04;10.13;;;8.15;;
38318;SDS011;24121;53.536;10.224;2022-12-20T16:31:39;12.55;;;8.35;;
38318;SDS011;24121;53.536;10.224;2022-12-20T16:34:12;16.40;;;9.18;;
38318;SDS011;24121;53.536;10.224;2022-12-20T16:36:39;10.73;;;7.85;;
38318;SDS011;24121;53.536;10.224;2022-12-20T16:39:04;13.05;;;8.48;;
38318;SDS011;24121;53.536;10.224;2022-12-20T16:41:30;13.88;;;9.27;;
38318;SDS011;24121;53.536;10.224;2022-12-20T16:43:57;11.20;;;8.32;;
38318;SDS011;24121;53.536;10.224;2022-12-20T16:46:26;12.27;;;8.68;;
38318;SDS011;24121;53.536;10.224;2022-12-20T16:48:53;11.88;;;9.35;;
38318;SDS011;24121;53.536;10.224;2022-12-20T16:51:26;10.13;;;7.95;;
38318;SDS011;24121;53.536;10.224;2022-12-20T16:54:05;11.20;;;8.50;;
38318;SDS011;24121;53.536;10.224;2022-12-20T16:56:34;10.27;;;8.13;;
38318;SDS011;24121;53.536;10.224;2022-12-20T16:58:59;14.43;;;9.90;;
38318;SDS011;24121;53.536;10.224;2022-12-20T17:01:32;11.73;;;9.07;;
38318;SDS011;24121;53.536;10.224;2022-12-20T17:03:59;14.15;;;9.55;;
38318;SDS011;24121;53.536;10.224;2022-12-20T17:06:25;10.70;;;8.45;;
38318;SDS011;24121;53.536;10.224;2022-12-20T17:08:50;14.52;;;9.80;;
38318;SDS011;24121;53.536;10.224;2022-12-20T17:11:17;14.98;;;9.75;;
38318;SDS011;24121;53.536;10.224;2022-12-20T17:13:44;12.90;;;9.15;;
38318;SDS011;24121;53.536;10.224;2022-12-20T17:16:10;12.32;;;8.80;;
38318;SDS011;24121;53.536;10.224;2022-12-20T17:18:39;12.70;;;10.25;;
38318;SDS011;24121;53.536;10.224;2022-12-20T17:21:12;16.52;;;10.30;;
38318;SDS011;24121;53.536;10.224;2022-12-20T17:23:47;12.30;;;10.18;;
38318;SDS011;24121;53.536;10.224;2022-12-20T17:26:14;13.57;;;9.50;;
38318;SDS011;24121;53.536;10.224;2022-12-20T17:28:40;15.30;;;10.50;;
38318;SDS011;24121;53.536;10.224;2022-12-20T17:31:14;13.30;;;9.45;;
38318;SDS011;24121;53.536;10.224;2022-12-20T17:33:46;16.20;;;9.75;;
38318;SDS011;24121;53.536;10.224;2022-12-20T17:36:11;16.27;;;10.00;;
38318;SDS011;24121;53.536;10.224;2022-12-20T17:38:37;13.85;;;9.73;;
38318;SDS011;24121;53.536;10.224;2022-12-20T17:41:02;14.65;;;10.40;;
38318;SDS011;24121;53.536;10.224;2022-12-20T17:43:27;19.55;;;10.50;;
38318;SDS011;24121;53.536;10.224;2022-12-20T17:45:53;10.68;;;8.70;;
38318;SDS011;24121;53.536;10.224;2022-12-20T17:48:18;13.90;;;9.45;;
38318;SDS011;24121;53.536;10.224;2022-12-20T17:50:43;12.23;;;9.55;;
38318;SDS011;24121;53.536;10.224;2022-12-20T17:53:09;13.30;;;8.85;;
38318;SDS011;24121;53.536;10.224;2022-12-20T17:55:35;14.30;;;9.38;;
38318;SDS011;24121;53.536;10.224;2022-12-20T17:58:00;13.60;;;8.23;;
38318;SDS011;24121;53.536;10.224;2022-12-20T18:00:27;13.43;;;8.57;;
38318;SDS011;24121;53.536;10.224;2022-12-20T18:02:54;14.98;;;9.57;;
38318;SDS011;24121;53.536;10.224;2022-12-20T18:07:51;13.70;;;8.80;;
38318;SDS011;24121;53.536;10.224;2022-12-20T18:10:17;16.67;;;10.40;;
38318;SDS011;24121;53.536;10.224;2022-12-20T18:12:42;12.30;;;8.73;;
38318;SDS011;24121;53.536;10.224;2022-12-20T18:15:08;10.25;;;8.65;;
38318;SDS011;24121;53.536;10.224;2022-12-20T18:17:34;10.18;;;9.02;;
38318;SDS011;24121;53.536;10.224;2022-12-20T18:20:00;12.02;;;9.05;;
38318;SDS011;24121;53.536;10.224;2022-12-20T18:22:25;17.90;;;8.98;;
38318;SDS011;24121;53.536;10.224;2022-12-20T18:24:50;12.68;;;9.32;;
38318;SDS011;24121;53.536;10.224;2022-12-20T18:27:16;13.93;;;9.27;;
38318;SDS011;24121;53.536;10.224;2022-12-20T18:29:41;12.95;;;8.63;;
38318;SDS011;24121;53.536;10.224;2022-12-20T18:32:07;10.07;;;8.07;;
38318;SDS011;24121;53.536;10.224;2022-12-20T18:34:32;14.45;;;8.45;;
38318;SDS011;24121;53.536;10.224;2022-12-20T18:36:57;13.02;;;9.48;;
38318;SDS011;24121;53.536;10.224;2022-12-20T18:39:25;15.18;;;10.40;;
38318;SDS011;24121;53.536;10.224;2022-12-20T18:41:51;15.07;;;9.38;;
38318;SDS011;24121;53.536;10.224;2022-12-20T18:44:16;12.60;;;9.15;;
38318;SDS011;24121;53.536;10.224;2022-12-20T18:46:41;13.35;;;8.93;;
38318;SDS011;24121;53.536;10.224;2022-12-20T18:49:07;9.73;;;8.45;;
38318;SDS011;24121;53.536;10.224;2022-12-20T18:51:33;15.20;;;11.02;;
38318;SDS011;24121;53.536;10.224;2022-12-20T18:54:03;14.90;;;10.20;;
38318;SDS011;24121;53.536;10.224;2022-12-20T18:56:32;14.30;;;9.60;;
38318;SDS011;24121;53.536;10.224;2022-12-20T18:58:59;14.17;;;10.10;;
38318;SDS011;24121;53.536;10.224;2022-12-20T19:01:26;13.60;;;9.57;;
38318;SDS011;24121;53.536;10.224;2022-12-20T19:03:53;14.00;;;9.35;;
38318;SDS011;24121;53.536;10.224;2022-12-20T19:06:19;11.38;;;9.43;;
38318;SDS011;24121;53.536;10.224;2022-12-20T19:08:45;11.27;;;9.18;;
38318;SDS011;24121;53.536;10.224;2022-12-20T19:11:12;14.68;;;10.23;;
38318;SDS011;24121;53.536;10.224;2022-12-20T19:13:39;12.88;;;10.20;;
38318;SDS011;24121;53.536;10.224;2022-12-20T19:16:13;16.13;;;10.90;;
38318;SDS011;24121;53.536;10.224;2022-12-20T19:18:45;14.55;;;10.57;;
38318;SDS011;24121;53.536;10.224;2022-12-20T19:21:12;13.00;;;10.02;;
38318;SDS011;24121;53.536;10.224;2022-12-20T19:23:42;14.60;;;10.85;;
38318;SDS011;24121;53.536;10.224;2022-12-20T19:26:10;12.25;;;9.93;;
38318;SDS011;24121;53.536;10.224;2022-12-20T19:28:37;18.58;;;12.30;;
38318;SDS011;24121;53.536;10.224;2022-12-20T19:31:06;19.95;;;12.68;;
38318;SDS011;24121;53.536;10.224;2022-12-20T19:33:39;21.15;;;13.85;;
38318;SDS011;24121;53.536;10.224;2022-12-20T19:36:06;17.17;;;12.00;;
38318;SDS011;24121;53.536;10.224;2022-12-20T19:38:46;17.02;;;12.82;;
38318;SDS011;24121;53.536;10.224;2022-12-20T19:41:12;15.50;;;12.27;;
38318;SDS011;24121;53.536;10.224;2022-12-20T19:43:38;19.58;;;12.55;;
38318;SDS011;24121;53.536;10.224;2022-12-20T19:46:03;18.50;;;12.45;;
38318;SDS011;24121;53.536;10.224;2022-12-20T19:48:30;23.00;;;14.95;;
38318;SDS011;24121;53.536;10.224;2022-12-20T19:53:28;19.02;;;14.57;;
38318;SDS011;24121;53.536;10.224;2022-12-20T19:55:53;21.83;;;15.25;;
38318;SDS011;24121;53.536;10.224;2022-12-20T19:58:19;18.17;;;13.55;;
38318;SDS011;24121;53.536;10.224;2022-12-20T20:00:47;18.35;;;13.77;;
38318;SDS011;24121;53.536;10.224;2022-12-20T20:03:13;20.25;;;14.23;;
38318;SDS011;24121;53.536;10.224;2022-12-20T20:05:39;23.85;;;16.27;;
38318;SDS011;24121;53.536;10.224;2022-12-20T20:08:05;17.13;;;14.20;;
38318;SDS011;24121;53.536;10.224;2022-12-20T20:10:31;20.48;;;14.57;;
38318;SDS011;24121;53.536;10.224;2022-12-20T20:12:56;26.88;;;18.00;;
38318;SDS011;24121;53.536;10.224;2022-12-20T20:15:21;30.15;;;18.10;;
38318;SDS011;24121;53.536;10.224;2022-12-20T20:17:47;31.63;;;19.15;;
38318;SDS011;24121;53.536;10.224;2022-12-20T20:20:12;34.40;;;21.15;;
38318;SDS011;24121;53.536;10.224;2022-12-20T20:22:38;33.47;;;19.92;;
38318;SDS011;24121;53.536;10.224;2022-12-20T20:25:03;22.08;;;15.93;;
38318;SDS011;24121;53.536;10.224;2022-12-20T20:27:29;31.67;;;20.60;;
38318;SDS011;24121;53.536;10.224;2022-12-20T20:29:54;27.02;;;18.58;;
38318;SDS011;24121;53.536;10.224;2022-12-20T20:32:19;32.88;;;21.77;;
38318;SDS011;24121;53.536;10.224;2022-12-20T20:34:44;26.35;;;20.80;;
38318;SDS011;24121;53.536;10.224;2022-12-20T20:37:10;28.27;;;20.42;;
38318;SDS011;24121;53.536;10.224;2022-12-20T20:39:35;32.08;;;21.63;;
38318;SDS011;24121;53.536;10.224;2022-12-20T20:42:00;31.25;;;20.85;;
38318;SDS011;24121;53.536;10.224;2022-12-20T20:44:26;28.67;;;21.35;;
38318;SDS011;24121;53.536;10.224;2022-12-20T20:46:51;61.92;;;27.90;;
38318;SDS011;24121;53.536;10.224;2022-12-20T20:49:16;31.25;;;21.73;;
38318;SDS011;24121;53.536;10.224;2022-12-20T20:51:43;33.50;;;23.83;;
38318;SDS011;24121;53.536;10.224;2022-12-20T20:54:09;24.63;;;19.98;;
38318;SDS011;24121;53.536;10.224;2022-12-20T20:56:34;40.28;;;25.67;;
38318;SDS011;24121;53.536;10.224;2022-12-20T20:58:59;39.47;;;24.90;;
38318;SDS011;24121;53.536;10.224;2022-12-20T21:01:25;36.63;;;24.88;;
38318;SDS011;24121;53.536;10.224;2022-12-20T21:03:50;55.60;;;29.42;;
38318;SDS011;24121;53.536;10.224;2022-12-20T21:06:15;27.55;;;21.30;;
38318;SDS011;24121;53.536;10.224;2022-12-20T21:08:41;49.45;;;27.92;;
38318;SDS011;24121;53.536;10.224;2022-12-20T21:11:06;36.72;;;25.17;;
38318;SDS011;24121;53.536;10.224;2022-12-20T21:13:32;41.50;;;26.35;;
38318;SDS011;24121;53.536;10.224;2022-12-20T21:16:04;75.55;;;33.95;;
38318;SDS011;24121;53.536;10.224;2022-12-20T21:18:33;46.40;;;26.23;;
38318;SDS011;24121;53.536;10.224;2022-12-20T21:21:03;42.70;;;27.40;;
38318;SDS011;24121;53.536;10.224;2022-12-20T21:23:33;32.97;;;24.10;;
38318;SDS011;24121;53.536;10.224;2022-12-20T21:25:58;33.13;;;22.95;;
38318;SDS011;24121;53.536;10.224;2022-12-20T21:28:24;52.42;;;28.65;;
38318;SDS011;24121;53.536;10.224;2022-12-20T21:30:59;53.35;;;31.13;;
38318;SDS011;24121;53.536;10.224;2022-12-20T21:33:25;43.40;;;28.13;;
38318;SDS011;24121;53.536;10.224;2022-12-20T21:35:58;46.28;;;28.55;;
38318;SDS011;24121;53.536;10.224;2022-12-20T21:38:27;54.78;;;28.27;;
38318;SDS011;24121;53.536;10.224;2022-12-20T21:40:57;33.97;;;25.20;;
38318;SDS011;24121;53.536;10.224;2022-12-20T21:43:25;53.65;;;26.83;;
38318;SDS011;24121;53.536;10.224;2022-12-20T21:45:50;39.05;;;24.85;;
38318;SDS011;24121;53.536;10.224;2022-12-20T21:48:15;84.63;;;33.65;;
38318;SDS011;24121;53.536;10.224;2022-12-20T21:50:42;36.70;;;24.92;;
38318;SDS011;24121;53.536;10.224;2022-12-20T21:53:09;37.65;;;25.40;;
38318;SDS011;24121;53.536;10.224;2022-12-20T21:55:34;48.25;;;27.50;;
38318;SDS011;24121;53.536;10.224;2022-12-20T21:58:00;31.80;;;24.58;;
38318;SDS011;24121;53.536;10.224;2022-12-20T22:00:25;60.55;;;30.80;;
38318;SDS011;24121;53.536;10.224;2022-12-20T22:02:50;45.60;;;27.63;;
38318;SDS011;24121;53.536;10.224;2022-12-20T22:05:15;43.90;;;27.45;;
38318;SDS011;24121;53.536;10.224;2022-12-20T22:07:41;33.80;;;23.67;;
38318;SDS011;24121;53.536;10.224;2022-12-20T22:10:06;92.97;;;34.65;;
38318;SDS011;24121;53.536;10.224;2022-12-20T22:12:32;89.63;;;34.70;;
38318;SDS011;24121;53.536;10.224;2022-12-20T22:14:57;53.63;;;27.92;;
38318;SDS011;24121;53.536;10.224;2022-12-20T22:17:23;33.65;;;24.02;;
38318;SDS011;24121;53.536;10.224;2022-12-20T22:19:48;72.85;;;31.55;;
38318;SDS011;24121;53.536;10.224;2022-12-20T22:22:14;33.20;;;23.30;;
38318;SDS011;24121;53.536;10.224;2022-12-20T22:24:40;84.28;;;32.55;;
38318;SDS011;24121;53.536;10.224;2022-12-20T22:27:06;34.85;;;25.48;;
38318;SDS011;24121;53.536;10.224;2022-12-20T22:29:31;81.95;;;34.13;;
38318;SDS011;24121;53.536;10.224;2022-12-20T22:31:56;45.83;;;27.13;;
38318;SDS011;24121;53.536;10.224;2022-12-20T22:34:22;62.45;;;29.33;;
38318;SDS011;24121;53.536;10.224;2022-12-20T22:36:47;72.13;;;31.80;;
38318;SDS011;24121;53.536;10.224;2022-12-20T22:39:12;47.95;;;27.65;;
38318;SDS011;24121;53.536;10.224;2022-12-20T22:41:38;64.40;;;29.95;;
38318;SDS011;24121;53.536;10.224;2022-12-20T22:44:03;55.20;;;27.15;;
38318;SDS011;24121;53.536;10.224;2022-12-20T22:46:29;82.82;;;32.15;;
38318;SDS011;24121;53.536;10.224;2022-12-20T22:48:54;55.42;;;29.77;;
38318;SDS011;24121;53.536;10.224;2022-12-20T22:51:20;52.42;;;28.33;;
38318;SDS011;24121;53.536;10.224;2022-12-20T22:53:46;83.00;;;31.45;;
38318;SDS011;24121;53.536;10.224;2022-12-20T22:56:13;124.70;;;38.92;;
38318;SDS011;24121;53.536;10.224;2022-12-20T22:58:39;42.60;;;24.35;;
38318;SDS011;24121;53.536;10.224;2022-12-20T23:01:06;110.30;;;35.22;;
38318;SDS011;24121;53.536;10.224;2022-12-20T23:03:32;39.35;;;22.75;;
38318;SDS011;24121;53.536;10.224;2022-12-20T23:05:59;41.97;;;25.15;;
38318;SDS011;24121;53.536;10.224;2022-12-20T23:08:26;92.75;;;34.20;;
38318;SDS011;24121;53.536;10.224;2022-12-20T23:10:53;31.50;;;21.73;;
38318;SDS011;24121;53.536;10.224;2022-12-20T23:13:37;30.65;;;20.40;;
38318;SDS011;24121;53.536;10.224;2022-12-20T23:16:21;74.65;;;28.00;;
38318;SDS011;24121;53.536;10.224;2022-12-20T23:18:48;32.22;;;20.55;;
38318;SDS011;24121;53.536;10.224;2022-12-20T23:21:14;48.05;;;24.60;;
38318;SDS011;24121;53.536;10.224;2022-12-20T23:23:58;58.00;;;26.23;;
38318;SDS011;24121;53.536;10.224;2022-12-20T23:26:23;39.67;;;22.60;;
38318;SDS011;24121;53.536;10.224;2022-12-20T23:28:50;66.85;;;27.90;;
38318;SDS011;24121;53.536;10.224;2022-12-20T23:31:15;36.70;;;20.95;;
38318;SDS011;24121;53.536;10.224;2022-12-20T23:33:41;67.20;;;27.05;;
38318;SDS011;24121;53.536;10.224;2022-12-20T23:36:07;36.83;;;21.95;;
38318;SDS011;24121;53.536;10.224;2022-12-20T23:38:33;102.35;;;32.03;;
38318;SDS011;24121;53.536;10.224;2022-12-20T23:41:00;55.90;;;25.40;;
38318;SDS011;24121;53.536;10.224;2022-12-20T23:46:05;48.45;;;24.27;;
38318;SDS011;24121;53.536;10.224;2022-12-20T23:48:32;43.42;;;22.50;;
38318;SDS011;24121;53.536;10.224;2022-12-20T23:50:58;45.30;;;23.05;;
38318;SDS011;24121;53.536;10.224;2022-12-20T23:53:24;50.67;;;23.75;;
